Time;durP1;ratioP1;P1;durP2;ratioP2;P2;SDS_P1;SDS_P2;PMS_P1;PMS_P2;Temp;Humidity;BMP_temperature;BMP_pressure;BME280_temperature;BME280_humidity;BME280_pressure;Samples;Min_cycle;Max_cycle;Signal;HPM_P1;HPM_P2
2023/06/12 00:00:01;;;;;;;19.90;8.45;;;;;;;19.19;61.35;101328.59;5092167;28;20127;-77
2023/06/12 00:02:26;;;;;;;19.80;8.88;;;;;;;19.12;60.34;101326.66;5094425;28;20381;-77
2023/06/12 00:04:54;;;;;;;19.95;8.43;;;;;;;19.10;61.35;101329.53;5096796;28;20032;-77
2023/06/12 00:07:21;;;;;;;18.83;8.73;;;;;;;19.07;57.79;101323.56;5093590;28;20146;-77
2023/06/12 00:09:47;;;;;;;18.45;8.32;;;;;;;19.00;59.99;101332.34;5090794;28;20027;-77
2023/06/12 00:12:13;;;;;;;18.67;9.43;;;;;;;18.98;60.30;101318.03;5094352;28;20030;-77
2023/06/12 00:14:39;;;;;;;21.88;9.23;;;;;;;18.94;60.74;101322.06;5094341;28;20403;-77
2023/06/12 00:17:05;;;;;;;22.15;8.77;;;;;;;18.92;61.20;101324.09;5091463;28;20039;-78
2023/06/12 00:19:30;;;;;;;17.98;7.75;;;;;;;18.90;62.37;101325.28;5089609;28;20521;-77
2023/06/12 00:21:56;;;;;;;19.13;8.77;;;;;;;18.85;60.61;101321.09;5094418;28;20032;-77
2023/06/12 00:24:21;;;;;;;21.40;9.05;;;;;;;18.83;60.18;101323.13;5090867;28;20027;-78
2023/06/12 00:26:47;;;;;;;19.08;7.85;;;;;;;18.80;61.32;101320.72;5094435;28;20046;-77
2023/06/12 00:29:12;;;;;;;19.50;8.43;;;;;;;18.76;60.86;101316.59;5093867;28;20114;-77
2023/06/12 00:31:38;;;;;;;19.85;8.65;;;;;;;18.72;63.09;101322.50;5107068;28;20475;-77
2023/06/12 00:34:03;;;;;;;18.75;8.23;;;;;;;18.67;62.77;101321.09;5107960;28;20035;-77
2023/06/12 00:36:28;;;;;;;19.95;8.82;;;;;;;18.61;64.23;101315.41;5097409;28;20055;-77
2023/06/12 00:38:53;;;;;;;17.45;8.45;;;;;;;18.52;63.31;101323.50;5107329;28;20028;-77
2023/06/12 00:41:19;;;;;;;22.55;9.23;;;;;;;18.44;63.27;101319.84;5103775;28;20032;-77
2023/06/12 00:43:44;;;;;;;20.60;8.68;;;;;;;18.37;63.29;101325.00;5106047;28;20034;-77
2023/06/12 00:46:10;;;;;;;20.25;9.20;;;;;;;18.32;64.66;101317.31;5105457;28;20034;-77
2023/06/12 00:48:38;;;;;;;18.48;7.97;;;;;;;18.22;62.95;101312.94;5104097;28;20028;-77
2023/06/12 00:51:03;;;;;;;19.52;9.02;;;;;;;18.17;63.18;101307.97;5104165;28;20027;-77
2023/06/12 00:53:28;;;;;;;18.98;8.65;;;;;;;18.09;63.84;101316.84;5100611;28;20486;-77
2023/06/12 00:55:54;;;;;;;20.00;8.55;;;;;;;18.03;65.14;101322.91;5104060;28;20028;-77
2023/06/12 00:58:20;;;;;;;21.55;9.15;;;;;;;17.99;64.59;101318.75;5105622;28;20526;-77
2023/06/12 01:00:48;;;;;;;19.05;8.55;;;;;;;17.94;65.67;101321.09;5106492;28;20051;-77
2023/06/12 01:03:14;;;;;;;20.08;8.27;;;;;;;17.88;64.86;101316.19;5106668;28;20028;-77
2023/06/12 01:05:42;;;;;;;18.42;8.60;;;;;;;17.82;64.02;101318.50;5100227;28;20035;-77
2023/06/12 01:08:17;;;;;;;22.08;9.57;;;;;;;17.81;64.75;101319.50;5105893;28;20027;-77
2023/06/12 01:10:50;;;;;;;21.20;9.70;;;;;;;17.79;65.21;101321.53;5105756;28;20032;-77
2023/06/12 01:13:16;;;;;;;19.98;9.18;;;;;;;17.76;64.88;101316.41;5103344;28;20114;-77
2023/06/12 01:15:42;;;;;;;21.02;9.32;;;;;;;17.74;65.64;101315.66;5098425;28;20024;-77
2023/06/12 01:18:07;;;;;;;19.98;9.23;;;;;;;17.71;66.39;101315.97;5109174;28;20428;-77
2023/06/12 01:20:34;;;;;;;19.92;8.90;;;;;;;17.65;66.19;101313.84;5108508;28;20035;-77
2023/06/12 01:23:02;;;;;;;22.88;9.10;;;;;;;17.58;65.23;101316.28;5104854;28;20031;-77
2023/06/12 01:26:07;;;;;;;20.17;9.57;;;;;;;17.60;65.61;101321.56;5100732;28;20186;-77
2023/06/12 01:28:51;;;;;;;22.35;9.65;;;;;;;17.53;65.06;101323.19;4980258;28;20111;-77
2023/06/12 01:31:34;;;;;;;21.10;9.55;;;;;;;17.50;65.77;101312.59;4987135;28;20053;-77
2023/06/12 01:34:50;;;;;;;20.00;8.45;;;;;;;17.47;65.04;101322.75;5002856;28;20087;-77
2023/06/12 01:37:32;;;;;;;20.33;8.85;;;;;;;17.39;65.26;101322.63;4971716;28;20457;-77
2023/06/12 01:40:02;;;;;;;19.70;9.27;;;;;;;17.35;65.17;101321.22;5009635;28;20050;-77
2023/06/12 01:42:29;;;;;;;21.00;8.52;;;;;;;17.32;64.38;101324.22;5008375;28;20033;-77
2023/06/12 01:44:55;;;;;;;22.35;9.18;;;;;;;17.28;66.41;101330.94;5000696;28;20400;-77
2023/06/12 01:47:20;;;;;;;20.98;9.60;;;;;;;17.28;65.54;101322.81;5008149;28;20076;-77
2023/06/12 01:49:46;;;;;;;20.60;8.82;;;;;;;17.27;64.97;101321.91;4992338;28;20117;-77
2023/06/12 01:52:11;;;;;;;21.58;9.30;;;;;;;17.25;64.91;101328.53;5009924;28;20041;-77
2023/06/12 01:54:37;;;;;;;22.42;9.32;;;;;;;17.23;66.07;101315.09;5004693;28;20030;-77
2023/06/12 01:57:03;;;;;;;19.92;9.05;;;;;;;17.23;64.35;101325.97;4996146;28;20037;-77
2023/06/12 01:59:28;;;;;;;19.75;9.32;;;;;;;17.21;65.67;101330.66;5004213;28;20042;-77
2023/06/12 02:01:53;;;;;;;23.35;9.50;;;;;;;17.19;66.73;101326.38;4988185;28;20410;-77
2023/06/12 02:04:19;;;;;;;20.63;9.10;;;;;;;17.14;66.36;101320.53;5022531;28;20028;-77
2023/06/12 02:06:45;;;;;;;20.98;9.55;;;;;;;17.10;67.26;101326.25;5100826;28;20028;-77
2023/06/12 02:09:10;;;;;;;20.45;9.00;;;;;;;17.06;67.26;101327.53;5105490;28;20023;-77
2023/06/12 02:11:36;;;;;;;20.88;8.95;;;;;;;17.05;66.12;101323.09;5105202;28;20027;-78
2023/06/12 02:14:01;;;;;;;21.13;8.65;;;;;;;17.03;68.09;101325.09;5103420;28;20023;-77
2023/06/12 02:16:27;;;;;;;24.40;9.80;;;;;;;17.00;67.38;101329.94;5106746;28;20534;-77
2023/06/12 02:18:52;;;;;;;21.42;9.45;;;;;;;16.96;67.19;101323.94;5102179;28;20115;-77
2023/06/12 02:21:18;;;;;;;20.27;9.15;;;;;;;16.94;66.71;101329.53;5122367;27;20086;-77
2023/06/12 02:23:43;;;;;;;20.52;9.07;;;;;;;16.93;67.00;101325.09;5118647;27;20020;-77
2023/06/12 02:26:08;;;;;;;21.05;9.35;;;;;;;16.92;67.48;101322.53;5120521;27;20043;-77
2023/06/12 02:28:33;;;;;;;19.88;9.00;;;;;;;16.88;67.78;101321.09;5100508;27;20025;-77
2023/06/12 02:31:00;;;;;;;18.50;8.45;;;;;;;16.88;68.07;101326.50;5116576;27;20031;-77
2023/06/12 02:33:25;;;;;;;19.65;9.40;;;;;;;16.80;68.53;101316.34;5122920;27;20026;-77
2023/06/12 02:35:51;;;;;;;20.73;9.68;;;;;;;16.76;68.64;101318.50;5104994;27;20027;-77
2023/06/12 02:38:16;;;;;;;20.27;9.70;;;;;;;16.76;68.44;101313.06;5130343;27;20076;-77
2023/06/12 02:40:42;;;;;;;21.00;9.00;;;;;;;16.74;67.84;101314.19;5129412;28;20522;-77
2023/06/12 02:43:07;;;;;;;22.15;8.52;;;;;;;16.74;68.93;101309.63;5123789;28;20024;-77
2023/06/12 02:45:32;;;;;;;20.67;9.40;;;;;;;16.70;68.32;101316.31;5122446;28;20031;-77
2023/06/12 02:47:57;;;;;;;21.95;8.85;;;;;;;16.68;68.27;101317.50;5108160;28;20031;-77
2023/06/12 02:50:23;;;;;;;22.98;9.45;;;;;;;16.65;69.30;101315.03;5127629;28;20019;-77
2023/06/12 02:52:48;;;;;;;20.95;8.65;;;;;;;16.60;68.62;101319.03;5106651;28;20027;-77
2023/06/12 02:55:14;;;;;;;19.70;8.90;;;;;;;16.56;69.41;101314.00;5122552;28;20439;-77
2023/06/12 02:57:39;;;;;;;21.40;9.00;;;;;;;16.49;69.82;101312.88;5124609;28;20106;-77
2023/06/12 03:00:05;;;;;;;21.13;9.68;;;;;;;16.44;69.06;101313.28;5127735;28;20035;-77
2023/06/12 03:02:30;;;;;;;21.33;9.88;;;;;;;16.41;69.34;101316.28;5124403;28;20104;-77
2023/06/12 03:04:56;;;;;;;23.10;10.45;;;;;;;16.38;70.17;101311.13;5125071;28;20497;-77
2023/06/12 03:07:21;;;;;;;21.52;11.30;;;;;;;16.35;70.15;101311.41;5116821;28;20382;-77
2023/06/12 03:09:47;;;;;;;23.08;9.90;;;;;;;16.32;69.28;101303.56;5125039;28;20116;-77
2023/06/12 03:12:12;;;;;;;21.00;10.27;;;;;;;16.28;70.93;101307.53;5127427;28;20110;-77
2023/06/12 03:14:38;;;;;;;22.23;10.20;;;;;;;16.26;70.85;101318.53;5119335;28;20039;-77
2023/06/12 03:17:04;;;;;;;22.80;10.65;;;;;;;16.24;70.48;101317.81;5121741;28;20023;-77
2023/06/12 03:19:30;;;;;;;23.00;10.35;;;;;;;16.21;70.73;101312.69;5124178;28;20071;-77
2023/06/12 03:21:56;;;;;;;21.05;10.00;;;;;;;16.20;70.71;101313.66;5126683;28;20076;-77
2023/06/12 03:24:21;;;;;;;21.52;10.18;;;;;;;16.17;70.35;101320.22;5114840;28;20034;-77
2023/06/12 03:26:47;;;;;;;22.80;10.43;;;;;;;16.13;70.80;101326.91;5128579;28;20051;-77
2023/06/12 03:29:12;;;;;;;22.02;10.95;;;;;;;16.12;72.08;101324.31;5113351;28;20083;-77
2023/06/12 03:31:38;;;;;;;25.90;10.07;;;;;;;16.09;69.61;101322.75;5103376;28;20031;-77
2023/06/12 03:34:03;;;;;;;34.78;11.23;;;;;;;16.12;72.23;101329.75;5130264;28;20019;-77
2023/06/12 03:36:29;;;;;;;22.77;10.13;;;;;;;16.08;69.89;101334.59;5122231;28;20030;-77
2023/06/12 03:38:54;;;;;;;24.42;10.43;;;;;;;16.07;70.05;101328.31;5128910;28;20088;-77
2023/06/12 03:41:21;;;;;;;21.63;9.85;;;;;;;16.05;70.43;101327.59;5119552;28;20055;-77
2023/06/12 03:43:46;;;;;;;23.65;9.93;;;;;;;16.05;70.68;101330.31;5102116;28;20027;-77
2023/06/12 03:46:12;;;;;;;20.48;9.77;;;;;;;16.04;71.77;101330.44;5124591;28;20031;-77
2023/06/12 03:48:37;;;;;;;20.83;10.38;;;;;;;16.02;71.32;101330.56;5129153;27;20068;-77
2023/06/12 03:51:02;;;;;;;22.13;10.55;;;;;;;15.99;71.12;101333.56;5125817;27;20462;-77
2023/06/12 03:53:28;;;;;;;22.63;9.65;;;;;;;15.99;71.82;101330.84;5112884;27;20418;-77
2023/06/12 03:55:53;;;;;;;22.17;9.88;;;;;;;15.98;73.45;101329.13;5128399;27;20095;-77
2023/06/12 03:58:18;;;;;;;21.40;10.23;;;;;;;15.98;72.41;101329.13;5123187;27;20058;-77
2023/06/12 04:00:45;;;;;;;24.02;10.95;;;;;;;15.96;72.69;101331.13;5130175;27;20079;-77
2023/06/12 04:03:14;;;;;;;22.92;11.93;;;;;;;15.96;73.27;101338.38;5107638;27;20529;-77
2023/06/12 04:05:39;;;;;;;27.00;11.73;;;;;;;15.94;73.86;101338.53;5127946;27;20023;-77
2023/06/12 04:08:04;;;;;;;24.00;11.02;;;;;;;15.94;73.38;101343.09;5123049;27;20114;-77
2023/06/12 04:10:33;;;;;;;25.80;10.40;;;;;;;15.93;72.64;101344.97;5132613;27;20018;-77
2023/06/12 04:12:58;;;;;;;25.88;11.73;;;;;;;15.92;73.43;101342.38;5132987;27;20534;-77
2023/06/12 04:15:23;;;;;;;23.50;11.90;;;;;;;15.94;73.74;101351.22;5108059;27;20023;-77
2023/06/12 04:17:49;;;;;;;26.20;12.45;;;;;;;15.89;73.28;101349.78;5125837;27;20038;-77
2023/06/12 04:20:14;;;;;;;23.85;11.82;;;;;;;15.91;73.05;101346.94;5131522;27;20073;-77
2023/06/12 04:22:41;;;;;;;25.52;11.90;;;;;;;15.93;74.92;101354.94;5133225;27;20023;-77
2023/06/12 04:25:07;;;;;;;23.27;11.38;;;;;;;15.94;74.47;101353.94;5107727;27;20026;-77
2023/06/12 04:27:33;;;;;;;22.38;11.32;;;;;;;15.94;76.16;101356.66;5106840;27;20054;-77
2023/06/12 04:29:59;;;;;;;24.15;12.65;;;;;;;15.95;75.96;101358.38;5112863;27;20255;-77
2023/06/12 04:32:24;;;;;;;23.55;11.38;;;;;;;15.95;77.13;101356.50;5124438;27;20106;-77
2023/06/12 04:34:50;;;;;;;25.45;10.82;;;;;;;15.99;76.07;101359.78;5110191;28;20498;-77
2023/06/12 04:37:18;;;;;;;23.13;11.80;;;;;;;16.02;75.46;101352.28;5122052;27;20034;-77
2023/06/12 04:39:45;;;;;;;23.30;11.25;;;;;;;16.03;76.74;101353.13;5126066;27;20102;-77
2023/06/12 04:42:10;;;;;;;20.67;10.07;;;;;;;16.03;77.86;101351.28;5127091;27;20088;-77
2023/06/12 04:44:37;;;;;;;23.75;10.55;;;;;;;16.03;77.16;101351.28;5113523;27;20035;-77
2023/06/12 04:47:08;;;;;;;26.60;12.07;;;;;;;16.09;76.82;101352.56;5107911;28;20031;-77
2023/06/12 04:49:35;;;;;;;21.95;10.95;;;;;;;16.14;77.43;101353.03;5130126;27;20054;-77
2023/06/12 04:52:03;;;;;;;23.27;11.23;;;;;;;16.17;77.47;101357.31;5122464;27;20023;-77
2023/06/12 04:54:35;;;;;;;23.55;11.27;;;;;;;16.20;76.87;101354.34;5128371;27;20031;-75
2023/06/12 04:57:02;;;;;;;25.13;11.18;;;;;;;16.23;78.03;101360.34;5127696;27;20030;-77
2023/06/12 04:59:28;;;;;;;24.52;12.13;;;;;;;16.28;77.16;101362.63;5101058;28;20030;-77
2023/06/12 05:01:55;;;;;;;21.77;11.68;;;;;;;16.31;76.94;101359.66;5129443;27;20114;-77
2023/06/12 05:04:20;;;;;;;22.42;11.45;;;;;;;16.33;77.38;101363.09;5132839;27;20034;-77
2023/06/12 05:06:46;;;;;;;21.65;10.98;;;;;;;16.38;77.74;101370.81;5125918;27;20031;-77
2023/06/12 05:09:12;;;;;;;22.40;11.38;;;;;;;16.41;76.62;101362.38;5128351;27;20106;-77
2023/06/12 05:11:38;;;;;;;23.67;11.77;;;;;;;16.43;77.91;101361.25;5131755;27;20387;-77
2023/06/12 05:14:03;;;;;;;24.17;11.85;;;;;;;16.48;76.08;101362.72;5126717;27;20024;-77
2023/06/12 05:16:28;;;;;;;24.80;12.38;;;;;;;16.55;74.57;101367.44;5124553;27;20023;-77
2023/06/12 05:18:53;;;;;;;24.08;11.95;;;;;;;16.61;75.89;101363.31;5130519;27;20042;-77
2023/06/12 05:21:19;;;;;;;23.50;11.10;;;;;;;16.67;75.29;101370.88;5126191;27;20077;-77
2023/06/12 05:23:45;;;;;;;22.63;10.77;;;;;;;16.71;75.58;101368.78;5128811;27;20118;-77
2023/06/12 05:26:10;;;;;;;24.85;11.70;;;;;;;16.77;78.44;101370.91;5122527;27;20026;-74
2023/06/12 05:28:36;;;;;;;22.67;12.27;;;;;;;16.85;76.72;101370.19;5104755;27;20033;-77
2023/06/12 05:31:01;;;;;;;26.08;11.63;;;;;;;16.92;76.88;101369.53;5099388;27;20072;-77
2023/06/12 05:33:26;;;;;;;22.95;12.00;;;;;;;17.01;76.92;101375.97;5111315;27;20058;-77
2023/06/12 05:35:51;;;;;;;25.13;12.10;;;;;;;17.08;76.06;101370.84;5112912;27;20474;-77
2023/06/12 05:38:17;;;;;;;22.58;12.32;;;;;;;17.14;75.76;101363.97;5113482;27;20587;-76
2023/06/12 05:40:42;;;;;;;23.45;12.48;;;;;;;17.22;77.60;101366.81;5131311;27;20033;-76
2023/06/12 05:43:07;;;;;;;26.77;12.30;;;;;;;17.28;74.20;101360.84;5128837;27;20027;-76
2023/06/12 05:45:33;;;;;;;23.08;12.07;;;;;;;17.37;76.47;101362.69;5128040;27;20077;-78
2023/06/12 05:47:58;;;;;;;21.85;11.27;;;;;;;17.43;72.53;101359.38;5121738;27;20035;-78
2023/06/12 05:50:23;;;;;;;22.42;11.48;;;;;;;17.51;74.51;101355.06;5111240;27;20023;-76
2023/06/12 05:52:49;;;;;;;27.05;13.32;;;;;;;17.60;74.22;101356.91;5128562;27;20031;-77
2023/06/12 05:55:14;;;;;;;26.90;13.73;;;;;;;17.67;72.28;101352.59;5124910;27;20019;-76
2023/06/12 05:57:40;;;;;;;25.58;14.00;;;;;;;17.74;72.84;101356.44;5111989;27;20027;-77
2023/06/12 06:00:07;;;;;;;23.30;12.68;;;;;;;17.80;74.03;101342.28;5113471;27;20027;-78
2023/06/12 06:02:33;;;;;;;24.27;11.80;;;;;;;17.88;74.08;101351.53;5113910;27;20072;-80
2023/06/12 06:04:58;;;;;;;25.17;13.68;;;;;;;17.95;70.59;101347.25;5130775;27;20538;-76
2023/06/12 06:07:23;;;;;;;23.77;11.80;;;;;;;18.00;74.60;101342.25;5108957;27;20026;-76
2023/06/12 06:09:49;;;;;;;24.35;12.35;;;;;;;18.06;71.80;101346.22;5134651;27;20130;-76
2023/06/12 06:12:14;;;;;;;21.95;11.27;;;;;;;18.12;70.05;101349.19;5136980;27;20031;-74
2023/06/12 06:14:39;;;;;;;25.80;12.32;;;;;;;18.22;69.35;101354.59;5143229;27;20029;-78
2023/06/12 06:17:05;;;;;;;24.35;12.93;;;;;;;18.30;67.89;101354.72;5130817;27;20035;-76
2023/06/12 06:19:30;;;;;;;23.90;12.27;;;;;;;18.39;67.93;101354.78;5109531;27;20117;-76
2023/06/12 06:21:57;;;;;;;24.33;10.38;;;;;;;18.42;70.37;101359.94;5124784;27;20072;-77
2023/06/12 06:24:22;;;;;;;20.60;10.57;;;;;;;18.47;67.56;101358.47;5133596;27;20019;-75
2023/06/12 06:26:48;;;;;;;22.77;10.52;;;;;;;18.55;65.74;101360.47;5112931;27;20046;-74
2023/06/12 06:29:13;;;;;;;21.65;11.13;;;;;;;18.61;68.28;101362.56;5135839;27;20046;-76
2023/06/12 06:31:38;;;;;;;23.17;10.88;;;;;;;18.66;66.07;101365.66;5137566;27;20044;-76
2023/06/12 06:34:04;;;;;;;21.52;9.98;;;;;;;18.73;65.77;101365.94;5142164;27;20031;-76
2023/06/12 06:36:29;;;;;;;25.48;10.95;;;;;;;18.80;66.54;101368.88;5127977;28;21289;-76
2023/06/12 06:38:55;;;;;;;23.63;11.32;;;;;;;18.86;66.86;101368.31;5128654;27;20432;-76
2023/06/12 06:41:21;;;;;;;22.02;8.35;;;;;;;18.90;65.12;101368.84;5130618;28;20028;-76
2023/06/12 06:43:46;;;;;;;21.23;9.68;;;;;;;19.00;67.23;101369.63;5117644;28;20027;-76
2023/06/12 06:46:12;;;;;;;21.83;8.48;;;;;;;19.03;64.98;101363.88;5152423;27;20045;-75
2023/06/12 06:48:37;;;;;;;19.85;9.68;;;;;;;19.07;64.62;101370.72;5128473;28;20064;-76
2023/06/12 06:51:02;;;;;;;20.88;9.27;;;;;;;19.20;64.68;101376.63;5144497;28;20031;-76
2023/06/12 06:53:28;;;;;;;23.20;10.20;;;;;;;19.26;67.09;101374.31;5125930;28;20019;-76
2023/06/12 06:55:53;;;;;;;21.33;9.18;;;;;;;19.34;65.63;101367.06;5148403;28;20036;-76
2023/06/12 06:58:18;;;;;;;19.50;8.18;;;;;;;19.41;63.82;101375.44;5147895;28;20042;-76
2023/06/12 07:00:44;;;;;;;20.67;8.93;;;;;;;19.45;63.11;101370.56;5154949;27;20015;-76
2023/06/12 07:03:09;;;;;;;19.95;7.75;;;;;;;19.47;61.79;101366.63;5147066;28;20019;-76
2023/06/12 07:05:35;;;;;;;20.13;9.30;;;;;;;19.65;63.60;101365.75;5155494;27;20019;-76
2023/06/12 07:08:00;;;;;;;22.88;8.35;;;;;;;19.67;61.46;101358.28;5150083;27;20011;-78
2023/06/12 07:10:25;;;;;;;20.05;9.55;;;;;;;19.73;61.47;101357.63;5147770;28;20023;-76
2023/06/12 07:12:56;;;;;;;20.77;8.02;;;;;;;19.78;64.22;101357.13;5152881;27;20020;-76
2023/06/12 07:15:22;;;;;;;21.92;8.90;;;;;;;19.93;58.72;101361.03;5130485;28;20012;-76
2023/06/12 07:17:47;;;;;;;21.33;8.35;;;;;;;20.01;60.32;101357.47;5141462;28;20038;-76
2023/06/12 07:20:12;;;;;;;21.55;7.88;;;;;;;20.11;58.67;101352.75;5140042;28;20036;-76
2023/06/12 07:22:38;;;;;;;18.77;8.00;;;;;;;20.28;58.33;101352.81;5148265;27;20032;-77
2023/06/12 07:25:03;;;;;;;19.67;8.38;;;;;;;20.29;59.34;101349.94;5151443;27;20023;-77
2023/06/12 07:27:28;;;;;;;19.08;7.85;;;;;;;20.31;58.60;101352.50;5147135;27;20023;-76
2023/06/12 07:29:55;;;;;;;17.95;7.95;;;;;;;20.31;58.80;101345.19;5148738;27;20030;-75
2023/06/12 07:32:20;;;;;;;22.33;9.05;;;;;;;20.40;57.13;101349.66;5154516;27;20034;-76
2023/06/12 07:34:46;;;;;;;20.02;8.32;;;;;;;20.44;58.32;101352.91;5125973;27;20036;-77
2023/06/12 07:37:12;;;;;;;21.42;8.85;;;;;;;20.56;57.53;101348.84;5117652;28;20027;-75
2023/06/12 07:39:38;;;;;;;19.13;8.07;;;;;;;20.53;58.83;101345.59;5136474;27;20054;-76
2023/06/12 07:42:05;;;;;;;21.08;8.80;;;;;;;20.59;58.22;101350.41;5141518;27;20019;-77
2023/06/12 07:44:31;;;;;;;18.58;8.77;;;;;;;20.67;59.26;101350.44;5149525;27;20035;-77
2023/06/12 07:46:56;;;;;;;18.67;7.82;;;;;;;20.68;57.95;101345.84;5240714;22;20050;-72
2023/06/12 07:49:21;;;;;;;21.50;8.90;;;;;;;20.81;56.43;101345.38;5096342;28;20128;-73
2023/06/12 07:51:47;;;;;;;19.90;7.90;;;;;;;20.86;57.02;101345.69;5090577;28;20040;-74
2023/06/12 07:54:12;;;;;;;19.95;9.00;;;;;;;21.00;55.86;101345.03;5087065;28;20032;-71
2023/06/12 07:56:38;;;;;;;18.50;7.90;;;;;;;21.02;57.53;101351.19;5084343;28;20515;-74
2023/06/12 07:59:09;;;;;;;20.00;8.88;;;;;;;21.08;57.82;101345.06;5087584;28;20056;-73
2023/06/12 08:01:37;;;;;;;19.70;8.02;;;;;;;21.20;56.10;101347.44;5085893;28;20081;-74
2023/06/12 08:04:09;;;;;;;16.92;7.38;;;;;;;21.25;57.18;101350.53;5086523;28;20518;-74
2023/06/12 08:06:38;;;;;;;20.25;8.13;;;;;;;21.34;56.67;101341.28;5086706;28;20031;-74
2023/06/12 08:09:04;;;;;;;21.42;9.00;;;;;;;21.47;54.09;101340.78;5093803;28;20039;-71
2023/06/12 08:11:29;;;;;;;19.42;8.07;;;;;;;21.48;56.03;101340.59;5077654;28;20027;-71
2023/06/12 08:13:54;;;;;;;19.40;8.02;;;;;;;21.51;56.59;101339.44;5096638;28;20139;-70
2023/06/12 08:16:20;;;;;;;18.83;7.15;;;;;;;21.62;56.79;101340.97;5074377;28;20028;-71
2023/06/12 08:18:46;;;;;;;20.77;8.38;;;;;;;21.68;56.06;101343.00;5073281;28;20100;-71
2023/06/12 08:21:11;;;;;;;24.13;10.00;;;;;;;21.80;53.34;101344.34;5074406;28;20115;-71
2023/06/12 08:23:36;;;;;;;15.75;7.00;;;;;;;21.82;54.22;101339.53;5073923;28;20077;-71
2023/06/12 08:26:04;;;;;;;20.45;8.57;;;;;;;21.83;55.56;101340.38;5073555;28;20566;-71
2023/06/12 08:28:30;;;;;;;28.55;8.98;;;;;;;21.99;55.97;101340.38;5083639;28;20368;-71
2023/06/12 08:30:57;;;;;;;18.17;7.40;;;;;;;22.01;55.77;101345.66;5089473;28;20039;-71
2023/06/12 08:33:23;;;;;;;20.73;9.05;;;;;;;22.14;52.26;101339.63;5073731;28;20012;-71
2023/06/12 08:35:48;;;;;;;19.15;8.18;;;;;;;22.19;53.61;101342.69;5092372;28;20047;-71
2023/06/12 08:38:14;;;;;;;20.08;8.43;;;;;;;22.22;53.67;101336.84;5091119;28;20028;-70
2023/06/12 08:40:39;;;;;;;17.65;7.63;;;;;;;22.20;55.97;101336.19;5071331;28;20055;-70
2023/06/12 08:43:05;;;;;;;20.08;8.77;;;;;;;22.24;54.23;101339.41;5091656;28;20467;-71
2023/06/12 08:45:36;;;;;;;17.92;8.20;;;;;;;22.23;55.80;101340.47;5074118;28;20535;-71
2023/06/12 08:48:05;;;;;;;21.35;8.82;;;;;;;22.30;54.69;101335.94;5092219;28;20075;-70
2023/06/12 08:50:33;;;;;;;20.77;8.27;;;;;;;22.37;52.11;101336.13;5075933;28;20031;-70
2023/06/12 08:53:00;;;;;;;19.00;7.93;;;;;;;22.48;53.27;101338.47;5067485;28;20333;-70
2023/06/12 08:55:27;;;;;;;18.80;8.65;;;;;;;22.62;54.45;101329.50;5093528;28;20031;-70
2023/06/12 08:57:53;;;;;;;19.13;7.80;;;;;;;22.72;50.91;101323.78;5089464;28;20027;-71
2023/06/12 09:00:19;;;;;;;18.17;7.78;;;;;;;22.79;54.71;101332.13;5083574;28;20028;-71
2023/06/12 09:02:53;;;;;;;20.33;8.90;;;;;;;22.80;50.80;101331.94;5073535;28;20059;-71
2023/06/12 09:05:26;;;;;;;22.20;8.82;;;;;;;22.89;51.65;101327.28;5072628;28;20020;-71
2023/06/12 09:07:52;;;;;;;19.13;8.60;;;;;;;22.99;51.91;101322.41;5092275;28;20483;-71
2023/06/12 09:10:18;;;;;;;20.02;8.20;;;;;;;23.07;54.27;101323.38;5090772;28;20357;-71
2023/06/12 09:12:44;;;;;;;18.98;8.43;;;;;;;23.22;51.62;101327.03;5089687;28;20092;-71
2023/06/12 09:15:16;;;;;;;19.85;9.00;;;;;;;23.24;51.76;101324.97;5090610;28;20087;-71
2023/06/12 09:17:42;;;;;;;17.85;8.38;;;;;;;23.37;51.75;101324.34;5093115;28;20120;-71
2023/06/12 09:20:14;;;;;;;19.42;7.32;;;;;;;23.36;50.88;101311.66;5076846;28;20055;-71
2023/06/12 09:22:40;;;;;;;20.95;8.95;;;;;;;23.47;52.11;101304.88;5090809;28;20054;-71
2023/06/12 09:25:06;;;;;;;18.52;7.47;;;;;;;23.46;51.11;101305.94;5093254;28;20111;-71
2023/06/12 09:27:40;;;;;;;16.73;7.28;;;;;;;23.55;52.52;101315.75;5067350;28;20035;-71
2023/06/12 09:30:07;;;;;;;19.02;7.22;;;;;;;23.56;50.83;101317.47;5093948;28;20059;-70
2023/06/12 09:32:32;;;;;;;18.85;7.55;;;;;;;23.54;51.46;101316.78;5075791;28;20494;-70
2023/06/12 09:34:57;;;;;;;19.88;8.48;;;;;;;23.63;48.80;101312.06;5095353;28;20036;-70
2023/06/12 09:37:23;;;;;;;18.00;7.97;;;;;;;23.69;46.55;101314.94;5077173;28;20062;-71
2023/06/12 09:39:49;;;;;;;17.98;7.43;;;;;;;23.63;50.94;101317.56;5086120;28;20024;-71
2023/06/12 09:42:17;;;;;;;18.75;8.15;;;;;;;23.70;49.15;101318.53;5093665;28;20024;-71
2023/06/12 09:44:42;;;;;;;20.02;7.97;;;;;;;23.78;47.98;101325.81;5075511;28;20551;-71
2023/06/12 09:47:08;;;;;;;16.48;7.38;;;;;;;23.80;48.94;101321.84;5093505;28;20068;-70
2023/06/12 09:49:34;;;;;;;19.02;8.45;;;;;;;23.88;46.31;101315.44;5083274;28;20119;-70
2023/06/12 09:52:02;;;;;;;17.63;7.80;;;;;;;23.87;48.17;101309.09;5071472;28;20034;-70
2023/06/12 09:54:30;;;;;;;18.65;7.50;;;;;;;23.88;46.36;101315.44;5093722;28;20038;-71
2023/06/12 09:56:58;;;;;;;18.75;8.02;;;;;;;23.89;48.49;101312.50;5083967;28;20084;-71
2023/06/12 09:59:27;;;;;;;18.67;8.63;;;;;;;23.99;47.08;101317.72;5066537;28;20031;-71
2023/06/12 10:02:00;;;;;;;18.05;8.10;;;;;;;24.03;46.23;101319.03;5087091;28;20028;-71
2023/06/12 10:04:42;;;;;;;19.33;7.82;;;;;;;24.15;47.74;101315.81;5071540;28;20031;-71
2023/06/12 10:07:15;;;;;;;16.20;6.97;;;;;;;24.06;48.67;101312.31;5090497;28;20043;-71
2023/06/12 10:09:42;;;;;;;20.38;7.03;;;;;;;24.10;46.80;101307.28;5089756;28;20123;-71
2023/06/12 10:12:08;;;;;;;18.88;7.82;;;;;;;24.11;48.88;101307.09;5095934;28;20472;-71
2023/06/12 10:14:35;;;;;;;19.33;8.02;;;;;;;24.23;48.74;101308.31;5091744;28;20421;-72
2023/06/12 10:17:02;;;;;;;18.60;8.50;;;;;;;24.22;48.60;101306.63;5092135;28;20134;-72
2023/06/12 10:19:28;;;;;;;22.23;8.70;;;;;;;24.32;46.79;101311.81;5075514;28;20032;-72
2023/06/12 10:21:55;;;;;;;16.77;7.57;;;;;;;24.32;47.63;101303.56;5092161;28;20028;-71
2023/06/12 10:24:22;;;;;;;17.20;6.97;;;;;;;24.40;46.00;101297.09;5092832;28;20495;-71
2023/06/12 10:26:50;;;;;;;17.08;7.55;;;;;;;24.39;48.19;101307.25;5069610;28;20032;-71
2023/06/12 10:29:28;;;;;;;18.42;7.70;;;;;;;24.40;46.14;101308.94;5085433;28;20042;-71
2023/06/12 10:32:14;;;;;;;19.33;8.38;;;;;;;24.52;46.46;101300.19;5075488;28;20035;-71
2023/06/12 10:34:45;;;;;;;17.63;8.07;;;;;;;24.55;45.27;101302.56;5068040;28;20030;-72
2023/06/12 10:37:32;;;;;;;19.35;8.68;;;;;;;24.58;46.75;101292.03;5075865;28;20404;-71
2023/06/12 10:40:21;;;;;;;17.65;8.10;;;;;;;24.61;45.71;101290.81;5068904;28;20046;-71
2023/06/12 10:42:47;;;;;;;18.75;7.85;;;;;;;24.74;43.81;101293.69;5078059;28;20052;-72
2023/06/12 10:45:28;;;;;;;16.95;7.80;;;;;;;24.82;45.19;101283.63;5093252;28;20085;-71
2023/06/12 10:48:03;;;;;;;17.60;7.38;;;;;;;24.90;46.30;101287.09;5083995;28;20101;-71
2023/06/12 10:50:30;;;;;;;17.27;7.95;;;;;;;24.85;45.69;101292.34;5092126;28;20020;-71
2023/06/12 10:52:56;;;;;;;22.40;9.25;;;;;;;24.75;46.89;101283.56;5074397;28;20032;-71
2023/06/12 10:55:23;;;;;;;17.05;7.72;;;;;;;24.81;46.03;101281.94;5089562;28;20092;-71
2023/06/12 10:57:53;;;;;;;17.75;8.27;;;;;;;24.95;44.01;101284.63;5076693;28;20036;-71
2023/06/12 11:00:21;;;;;;;22.13;8.45;;;;;;;24.92;47.68;101275.91;5076592;28;20027;-71
2023/06/12 11:02:59;;;;;;;19.15;8.40;;;;;;;24.99;45.08;101276.81;5077332;28;20040;-71
2023/06/12 11:05:25;;;;;;;18.58;7.60;;;;;;;24.95;47.71;101278.28;5078394;28;20035;-71
2023/06/12 11:07:54;;;;;;;21.20;8.02;;;;;;;24.98;46.17;101271.50;5095978;28;20034;-71
2023/06/12 11:10:19;;;;;;;18.58;8.63;;;;;;;24.99;46.42;101278.72;5096140;28;20055;-71
2023/06/12 11:12:46;;;;;;;17.88;8.15;;;;;;;25.18;44.02;101268.94;5073868;28;20023;-72